sensor_id;sensor_type;location;lat;lon;timestamp;P1;durP1;ratioP1;P2;durP2;ratioP2
15383;SDS011;7790;53.022;12.968;2023-06-04T00:03:46;0.90;;;0.70;;
15383;SDS011;7790;53.022;12.968;2023-06-04T00:07:47;0.60;;;0.60;;
15383;SDS011;7790;53.022;12.968;2023-06-04T00:11:48;0.97;;;0.73;;
15383;SDS011;7790;53.022;12.968;2023-06-04T00:15:49;0.60;;;0.60;;
15383;SDS011;7790;53.022;12.968;2023-06-04T00:19:49;3.00;;;0.87;;
15383;SDS011;7790;53.022;12.968;2023-06-04T00:23:50;0.70;;;0.70;;
15383;SDS011;7790;53.022;12.968;2023-06-04T00:27:51;0.57;;;0.57;;
15383;SDS011;7790;53.022;12.968;2023-06-04T00:31:52;2.20;;;0.80;;
15383;SDS011;7790;53.022;12.968;2023-06-04T00:35:53;6.67;;;1.10;;
15383;SDS011;7790;53.022;12.968;2023-06-04T00:39:54;2.53;;;0.90;;
15383;SDS011;7790;53.022;12.968;2023-06-04T00:43:54;0.80;;;0.80;;
15383;SDS011;7790;53.022;12.968;2023-06-04T00:48:02;1.10;;;1.00;;
15383;SDS011;7790;53.022;12.968;2023-06-04T00:52:03;2.13;;;0.93;;
15383;SDS011;7790;53.022;12.968;2023-06-04T00:56:04;2.80;;;0.70;;
15383;SDS011;7790;53.022;12.968;2023-06-04T01:00:06;0.70;;;0.70;;
15383;SDS011;7790;53.022;12.968;2023-06-04T01:04:16;1.27;;;0.70;;
15383;SDS011;7790;53.022;12.968;2023-06-04T01:08:28;0.70;;;0.70;;
15383;SDS011;7790;53.022;12.968;2023-06-04T01:12:30;2.13;;;0.80;;
15383;SDS011;7790;53.022;12.968;2023-06-04T01:16:39;2.53;;;0.70;;
15383;SDS011;7790;53.022;12.968;2023-06-04T01:20:47;2.17;;;0.73;;
15383;SDS011;7790;53.022;12.968;2023-06-04T01:24:51;2.37;;;1.00;;
15383;SDS011;7790;53.022;12.968;2023-06-04T01:28:56;1.23;;;0.70;;
15383;SDS011;7790;53.022;12.968;2023-06-04T01:33:00;1.80;;;0.70;;
15383;SDS011;7790;53.022;12.968;2023-06-04T01:37:02;2.23;;;0.70;;
15383;SDS011;7790;53.022;12.968;2023-06-04T01:41:04;2.27;;;1.00;;
15383;SDS011;7790;53.022;12.968;2023-06-04T01:45:05;2.70;;;0.90;;
15383;SDS011;7790;53.022;12.968;2023-06-04T01:49:06;3.47;;;0.90;;
15383;SDS011;7790;53.022;12.968;2023-06-04T01:53:07;9.43;;;1.37;;
15383;SDS011;7790;53.022;12.968;2023-06-04T01:57:08;1.07;;;0.90;;
15383;SDS011;7790;53.022;12.968;2023-06-04T02:01:10;2.57;;;1.07;;
15383;SDS011;7790;53.022;12.968;2023-06-04T02:05:11;2.60;;;1.10;;
15383;SDS011;7790;53.022;12.968;2023-06-04T02:09:12;2.63;;;0.93;;
15383;SDS011;7790;53.022;12.968;2023-06-04T02:13:14;2.33;;;0.90;;
15383;SDS011;7790;53.022;12.968;2023-06-04T02:17:15;0.70;;;0.70;;
15383;SDS011;7790;53.022;12.968;2023-06-04T02:21:16;1.00;;;0.80;;
15383;SDS011;7790;53.022;12.968;2023-06-04T02:25:17;1.70;;;0.87;;
15383;SDS011;7790;53.022;12.968;2023-06-04T02:29:18;2.20;;;0.87;;
15383;SDS011;7790;53.022;12.968;2023-06-04T02:33:19;1.00;;;0.90;;
15383;SDS011;7790;53.022;12.968;2023-06-04T02:37:21;2.60;;;1.10;;
15383;SDS011;7790;53.022;12.968;2023-06-04T02:41:23;6.27;;;1.07;;
15383;SDS011;7790;53.022;12.968;2023-06-04T02:45:24;2.80;;;1.23;;
15383;SDS011;7790;53.022;12.968;2023-06-04T02:49:25;3.83;;;1.20;;
15383;SDS011;7790;53.022;12.968;2023-06-04T02:53:26;4.13;;;1.20;;
15383;SDS011;7790;53.022;12.968;2023-06-04T02:57:27;2.40;;;1.10;;
15383;SDS011;7790;53.022;12.968;2023-06-04T03:01:28;1.77;;;1.03;;
15383;SDS011;7790;53.022;12.968;2023-06-04T03:05:29;1.30;;;0.87;;
15383;SDS011;7790;53.022;12.968;2023-06-04T03:09:33;1.40;;;1.10;;
15383;SDS011;7790;53.022;12.968;2023-06-04T03:13:34;1.93;;;0.90;;
15383;SDS011;7790;53.022;12.968;2023-06-04T03:17:35;1.60;;;0.90;;
15383;SDS011;7790;53.022;12.968;2023-06-04T03:21:36;3.93;;;0.93;;
15383;SDS011;7790;53.022;12.968;2023-06-04T03:25:40;1.20;;;0.90;;
15383;SDS011;7790;53.022;12.968;2023-06-04T03:29:41;1.00;;;0.90;;
15383;SDS011;7790;53.022;12.968;2023-06-04T03:33:42;1.53;;;0.90;;
15383;SDS011;7790;53.022;12.968;2023-06-04T03:37:43;0.73;;;0.73;;
15383;SDS011;7790;53.022;12.968;2023-06-04T03:41:44;4.47;;;0.93;;
15383;SDS011;7790;53.022;12.968;2023-06-04T03:45:45;0.70;;;0.67;;
15383;SDS011;7790;53.022;12.968;2023-06-04T03:49:46;0.80;;;0.67;;
15383;SDS011;7790;53.022;12.968;2023-06-04T03:53:47;2.20;;;0.93;;
15383;SDS011;7790;53.022;12.968;2023-06-04T03:57:48;0.93;;;0.63;;
15383;SDS011;7790;53.022;12.968;2023-06-04T04:01:49;1.97;;;0.87;;
15383;SDS011;7790;53.022;12.968;2023-06-04T04:05:50;2.60;;;0.83;;
15383;SDS011;7790;53.022;12.968;2023-06-04T04:09:51;1.70;;;0.80;;
15383;SDS011;7790;53.022;12.968;2023-06-04T04:13:52;1.23;;;0.90;;
15383;SDS011;7790;53.022;12.968;2023-06-04T04:17:56;1.03;;;0.70;;
15383;SDS011;7790;53.022;12.968;2023-06-04T04:21:57;1.00;;;0.90;;
15383;SDS011;7790;53.022;12.968;2023-06-04T04:25:59;0.80;;;0.80;;
15383;SDS011;7790;53.022;12.968;2023-06-04T04:30:01;0.70;;;0.70;;
15383;SDS011;7790;53.022;12.968;2023-06-04T04:34:06;0.90;;;0.80;;
15383;SDS011;7790;53.022;12.968;2023-06-04T04:38:11;1.07;;;0.80;;
15383;SDS011;7790;53.022;12.968;2023-06-04T04:42:19;1.70;;;0.57;;
15383;SDS011;7790;53.022;12.968;2023-06-04T04:46:23;0.63;;;0.60;;
15383;SDS011;7790;53.022;12.968;2023-06-04T04:50:25;0.80;;;0.77;;
15383;SDS011;7790;53.022;12.968;2023-06-04T04:54:26;1.67;;;1.00;;
15383;SDS011;7790;53.022;12.968;2023-06-04T04:58:27;0.70;;;0.70;;
15383;SDS011;7790;53.022;12.968;2023-06-04T05:02:29;0.70;;;0.70;;
15383;SDS011;7790;53.022;12.968;2023-06-04T05:06:30;0.60;;;0.60;;
15383;SDS011;7790;53.022;12.968;2023-06-04T05:10:31;3.23;;;1.00;;
15383;SDS011;7790;53.022;12.968;2023-06-04T05:14:34;0.90;;;0.77;;
15383;SDS011;7790;53.022;12.968;2023-06-04T05:18:37;3.30;;;0.93;;
15383;SDS011;7790;53.022;12.968;2023-06-04T05:22:42;7.10;;;1.30;;
15383;SDS011;7790;53.022;12.968;2023-06-04T05:26:44;0.70;;;0.70;;
15383;SDS011;7790;53.022;12.968;2023-06-04T05:30:51;0.70;;;0.70;;
15383;SDS011;7790;53.022;12.968;2023-06-04T05:34:53;1.97;;;1.00;;
15383;SDS011;7790;53.022;12.968;2023-06-04T05:38:57;1.07;;;1.00;;
15383;SDS011;7790;53.022;12.968;2023-06-04T05:43:05;2.03;;;0.90;;
15383;SDS011;7790;53.022;12.968;2023-06-04T05:47:08;2.37;;;0.90;;
15383;SDS011;7790;53.022;12.968;2023-06-04T05:51:09;1.23;;;0.80;;
15383;SDS011;7790;53.022;12.968;2023-06-04T05:55:12;0.70;;;0.70;;
15383;SDS011;7790;53.022;12.968;2023-06-04T05:59:14;1.67;;;0.90;;
15383;SDS011;7790;53.022;12.968;2023-06-04T06:03:16;1.00;;;0.90;;
15383;SDS011;7790;53.022;12.968;2023-06-04T06:07:20;2.37;;;1.23;;
15383;SDS011;7790;53.022;12.968;2023-06-04T06:11:21;2.13;;;0.80;;
15383;SDS011;7790;53.022;12.968;2023-06-04T06:15:22;5.27;;;1.00;;
15383;SDS011;7790;53.022;12.968;2023-06-04T06:19:25;2.43;;;1.10;;
15383;SDS011;7790;53.022;12.968;2023-06-04T06:23:26;3.33;;;1.20;;
15383;SDS011;7790;53.022;12.968;2023-06-04T06:27:34;3.90;;;1.10;;
15383;SDS011;7790;53.022;12.968;2023-06-04T06:32:19;1.30;;;0.80;;
15383;SDS011;7790;53.022;12.968;2023-06-04T06:36:57;3.20;;;1.30;;
15383;SDS011;7790;53.022;12.968;2023-06-04T06:42:00;2.90;;;1.40;;
15383;SDS011;7790;53.022;12.968;2023-06-04T06:46:49;2.57;;;1.10;;
15383;SDS011;7790;53.022;12.968;2023-06-04T06:51:16;2.87;;;0.67;;
15383;SDS011;7790;53.022;12.968;2023-06-04T06:55:58;2.70;;;1.10;;
15383;SDS011;7790;53.022;12.968;2023-06-04T07:01:12;1.90;;;0.90;;
15383;SDS011;7790;53.022;12.968;2023-06-04T07:05:48;2.50;;;1.37;;
15383;SDS011;7790;53.022;12.968;2023-06-04T07:09:49;2.50;;;0.90;;
15383;SDS011;7790;53.022;12.968;2023-06-04T07:13:51;2.10;;;1.07;;
15383;SDS011;7790;53.022;12.968;2023-06-04T07:17:52;5.57;;;1.07;;
15383;SDS011;7790;53.022;12.968;2023-06-04T07:21:54;9.27;;;1.63;;
15383;SDS011;7790;53.022;12.968;2023-06-04T07:25:59;2.87;;;1.17;;
15383;SDS011;7790;53.022;12.968;2023-06-04T07:30:01;2.13;;;0.80;;
15383;SDS011;7790;53.022;12.968;2023-06-04T07:34:09;1.53;;;0.70;;
15383;SDS011;7790;53.022;12.968;2023-06-04T07:48:52;2.77;;;0.90;;
15383;SDS011;7790;53.022;12.968;2023-06-04T07:53:08;10.67;;;0.97;;
15383;SDS011;7790;53.022;12.968;2023-06-04T07:57:16;3.33;;;1.07;;
15383;SDS011;7790;53.022;12.968;2023-06-04T08:01:17;1.90;;;1.03;;
15383;SDS011;7790;53.022;12.968;2023-06-04T08:05:18;3.00;;;0.80;;
15383;SDS011;7790;53.022;12.968;2023-06-04T08:09:19;0.63;;;0.57;;
15383;SDS011;7790;53.022;12.968;2023-06-04T08:13:20;0.53;;;0.50;;
15383;SDS011;7790;53.022;12.968;2023-06-04T08:17:21;1.63;;;0.70;;
15383;SDS011;7790;53.022;12.968;2023-06-04T08:21:25;0.80;;;0.80;;
15383;SDS011;7790;53.022;12.968;2023-06-04T08:25:27;1.10;;;0.70;;
15383;SDS011;7790;53.022;12.968;2023-06-04T08:29:28;3.13;;;1.00;;
15383;SDS011;7790;53.022;12.968;2023-06-04T08:33:28;1.33;;;0.70;;
15383;SDS011;7790;53.022;12.968;2023-06-04T08:37:29;1.33;;;0.87;;
15383;SDS011;7790;53.022;12.968;2023-06-04T08:45:44;8.10;;;1.73;;
15383;SDS011;7790;53.022;12.968;2023-06-04T08:49:50;4.30;;;1.17;;
15383;SDS011;7790;53.022;12.968;2023-06-04T08:53:51;6.40;;;1.50;;
15383;SDS011;7790;53.022;12.968;2023-06-04T08:57:53;3.50;;;1.33;;
15383;SDS011;7790;53.022;12.968;2023-06-04T09:01:54;7.07;;;2.17;;
15383;SDS011;7790;53.022;12.968;2023-06-04T09:05:56;4.83;;;1.67;;
15383;SDS011;7790;53.022;12.968;2023-06-04T09:09:58;3.20;;;2.03;;
15383;SDS011;7790;53.022;12.968;2023-06-04T09:13:59;11.47;;;1.40;;
15383;SDS011;7790;53.022;12.968;2023-06-04T09:18:04;4.80;;;1.97;;
15383;SDS011;7790;53.022;12.968;2023-06-04T09:22:05;3.90;;;1.63;;
15383;SDS011;7790;53.022;12.968;2023-06-04T09:31:34;2.83;;;1.40;;
15383;SDS011;7790;53.022;12.968;2023-06-04T09:35:37;4.07;;;1.43;;
15383;SDS011;7790;53.022;12.968;2023-06-04T09:39:38;5.80;;;1.40;;
15383;SDS011;7790;53.022;12.968;2023-06-04T09:43:39;3.60;;;1.20;;
15383;SDS011;7790;53.022;12.968;2023-06-04T09:47:43;2.97;;;1.03;;
15383;SDS011;7790;53.022;12.968;2023-06-04T09:51:48;1.80;;;1.40;;
15383;SDS011;7790;53.022;12.968;2023-06-04T09:55:56;1.50;;;1.23;;
15383;SDS011;7790;53.022;12.968;2023-06-04T09:59:58;6.10;;;1.43;;
15383;SDS011;7790;53.022;12.968;2023-06-04T10:04:02;1.57;;;1.10;;
15383;SDS011;7790;53.022;12.968;2023-06-04T10:08:04;2.67;;;1.00;;
15383;SDS011;7790;53.022;12.968;2023-06-04T10:12:05;0.80;;;0.80;;
15383;SDS011;7790;53.022;12.968;2023-06-04T10:16:07;1.03;;;1.00;;
15383;SDS011;7790;53.022;12.968;2023-06-04T10:20:08;1.13;;;0.97;;
15383;SDS011;7790;53.022;12.968;2023-06-04T10:24:12;2.97;;;1.10;;
15383;SDS011;7790;53.022;12.968;2023-06-04T10:28:14;2.30;;;1.00;;
15383;SDS011;7790;53.022;12.968;2023-06-04T10:32:18;1.23;;;1.00;;
15383;SDS011;7790;53.022;12.968;2023-06-04T10:36:21;1.00;;;0.90;;
15383;SDS011;7790;53.022;12.968;2023-06-04T10:40:30;1.10;;;1.00;;
15383;SDS011;7790;53.022;12.968;2023-06-04T10:44:45;3.97;;;1.20;;
15383;SDS011;7790;53.022;12.968;2023-06-04T10:48:51;3.20;;;1.23;;
15383;SDS011;7790;53.022;12.968;2023-06-04T10:52:53;1.73;;;1.03;;
15383;SDS011;7790;53.022;12.968;2023-06-04T10:56:55;0.70;;;0.70;;
15383;SDS011;7790;53.022;12.968;2023-06-04T11:00:56;5.57;;;1.30;;
15383;SDS011;7790;53.022;12.968;2023-06-04T11:05:01;4.30;;;1.47;;
15383;SDS011;7790;53.022;12.968;2023-06-04T11:09:03;8.27;;;1.80;;
15383;SDS011;7790;53.022;12.968;2023-06-04T11:13:07;5.53;;;1.73;;
15383;SDS011;7790;53.022;12.968;2023-06-04T11:17:09;7.23;;;1.20;;
15383;SDS011;7790;53.022;12.968;2023-06-04T11:21:11;4.43;;;1.23;;
15383;SDS011;7790;53.022;12.968;2023-06-04T11:25:15;7.87;;;1.70;;
15383;SDS011;7790;53.022;12.968;2023-06-04T11:29:16;4.70;;;1.20;;
15383;SDS011;7790;53.022;12.968;2023-06-04T11:33:17;5.07;;;1.43;;
15383;SDS011;7790;53.022;12.968;2023-06-04T11:37:18;1.43;;;1.30;;
15383;SDS011;7790;53.022;12.968;2023-06-04T11:41:19;3.40;;;1.30;;
15383;SDS011;7790;53.022;12.968;2023-06-04T11:45:21;6.83;;;1.90;;
15383;SDS011;7790;53.022;12.968;2023-06-04T11:49:22;12.70;;;4.33;;
15383;SDS011;7790;53.022;12.968;2023-06-04T11:53:23;23.33;;;8.40;;
15383;SDS011;7790;53.022;12.968;2023-06-04T11:57:26;25.80;;;8.70;;
15383;SDS011;7790;53.022;12.968;2023-06-04T12:01:27;32.90;;;10.23;;
15383;SDS011;7790;53.022;12.968;2023-06-04T12:05:30;45.67;;;14.77;;
15383;SDS011;7790;53.022;12.968;2023-06-04T12:09:34;67.30;;;32.90;;
15383;SDS011;7790;53.022;12.968;2023-06-04T12:13:39;63.97;;;31.67;;
15383;SDS011;7790;53.022;12.968;2023-06-04T12:17:49;107.50;;;56.67;;
15383;SDS011;7790;53.022;12.968;2023-06-04T12:22:04;114.20;;;60.30;;
15383;SDS011;7790;53.022;12.968;2023-06-04T12:26:07;88.87;;;46.67;;
15383;SDS011;7790;53.022;12.968;2023-06-04T12:30:08;102.73;;;53.87;;
15383;SDS011;7790;53.022;12.968;2023-06-04T12:34:09;80.40;;;44.43;;
15383;SDS011;7790;53.022;12.968;2023-06-04T12:38:14;90.93;;;47.57;;
15383;SDS011;7790;53.022;12.968;2023-06-04T12:42:14;85.93;;;43.07;;
15383;SDS011;7790;53.022;12.968;2023-06-04T12:46:15;61.20;;;32.97;;
15383;SDS011;7790;53.022;12.968;2023-06-04T12:50:16;63.83;;;33.67;;
15383;SDS011;7790;53.022;12.968;2023-06-04T12:54:18;63.27;;;34.83;;
15383;SDS011;7790;53.022;12.968;2023-06-04T12:58:20;57.63;;;34.43;;
15383;SDS011;7790;53.022;12.968;2023-06-04T13:02:21;59.17;;;32.63;;
15383;SDS011;7790;53.022;12.968;2023-06-04T13:06:22;55.57;;;31.13;;
15383;SDS011;7790;53.022;12.968;2023-06-04T13:10:23;59.57;;;30.53;;
15383;SDS011;7790;53.022;12.968;2023-06-04T13:14:23;47.30;;;26.53;;
15383;SDS011;7790;53.022;12.968;2023-06-04T13:18:26;44.07;;;25.77;;
15383;SDS011;7790;53.022;12.968;2023-06-04T13:22:27;43.60;;;25.37;;
15383;SDS011;7790;53.022;12.968;2023-06-04T13:26:27;39.83;;;22.77;;
15383;SDS011;7790;53.022;12.968;2023-06-04T13:30:28;35.83;;;19.70;;
15383;SDS011;7790;53.022;12.968;2023-06-04T13:34:30;36.17;;;19.73;;
15383;SDS011;7790;53.022;12.968;2023-06-04T13:38:32;34.37;;;19.13;;
15383;SDS011;7790;53.022;12.968;2023-06-04T13:42:33;40.63;;;20.20;;
15383;SDS011;7790;53.022;12.968;2023-06-04T13:46:34;30.33;;;18.07;;
15383;SDS011;7790;53.022;12.968;2023-06-04T13:50:35;29.47;;;16.80;;
15383;SDS011;7790;53.022;12.968;2023-06-04T13:54:36;30.50;;;16.67;;
15383;SDS011;7790;53.022;12.968;2023-06-04T13:58:37;28.57;;;16.03;;
15383;SDS011;7790;53.022;12.968;2023-06-04T14:02:38;26.37;;;16.27;;
15383;SDS011;7790;53.022;12.968;2023-06-04T14:06:39;26.17;;;14.57;;
15383;SDS011;7790;53.022;12.968;2023-06-04T14:10:40;25.23;;;14.80;;
15383;SDS011;7790;53.022;12.968;2023-06-04T14:14:41;19.13;;;12.30;;
15383;SDS011;7790;53.022;12.968;2023-06-04T14:18:42;21.47;;;11.97;;
15383;SDS011;7790;53.022;12.968;2023-06-04T14:22:43;17.13;;;11.20;;
15383;SDS011;7790;53.022;12.968;2023-06-04T14:26:44;19.67;;;12.00;;
15383;SDS011;7790;53.022;12.968;2023-06-04T14:30:44;18.30;;;11.30;;
15383;SDS011;7790;53.022;12.968;2023-06-04T14:34:45;18.03;;;10.70;;
15383;SDS011;7790;53.022;12.968;2023-06-04T14:38:46;16.43;;;10.07;;
15383;SDS011;7790;53.022;12.968;2023-06-04T14:42:48;20.57;;;10.57;;
15383;SDS011;7790;53.022;12.968;2023-06-04T14:46:49;15.00;;;9.30;;
15383;SDS011;7790;53.022;12.968;2023-06-04T14:50:51;15.33;;;8.97;;
15383;SDS011;7790;53.022;12.968;2023-06-04T14:54:55;14.93;;;9.10;;
15383;SDS011;7790;53.022;12.968;2023-06-04T14:58:56;12.63;;;8.70;;
15383;SDS011;7790;53.022;12.968;2023-06-04T15:02:57;13.63;;;8.40;;
15383;SDS011;7790;53.022;12.968;2023-06-04T15:07:00;13.80;;;8.47;;
15383;SDS011;7790;53.022;12.968;2023-06-04T15:11:00;11.20;;;7.60;;
15383;SDS011;7790;53.022;12.968;2023-06-04T15:15:01;10.97;;;6.77;;
15383;SDS011;7790;53.022;12.968;2023-06-04T15:19:02;9.57;;;6.77;;
15383;SDS011;7790;53.022;12.968;2023-06-04T15:23:03;10.57;;;6.83;;
15383;SDS011;7790;53.022;12.968;2023-06-04T15:27:04;9.40;;;6.10;;
15383;SDS011;7790;53.022;12.968;2023-06-04T15:31:05;9.70;;;6.30;;
15383;SDS011;7790;53.022;12.968;2023-06-04T15:35:06;10.50;;;6.07;;
15383;SDS011;7790;53.022;12.968;2023-06-04T15:39:07;9.23;;;5.50;;
15383;SDS011;7790;53.022;12.968;2023-06-04T15:43:08;8.60;;;5.10;;
15383;SDS011;7790;53.022;12.968;2023-06-04T15:47:09;8.87;;;5.20;;
15383;SDS011;7790;53.022;12.968;2023-06-04T15:51:10;7.73;;;5.17;;
15383;SDS011;7790;53.022;12.968;2023-06-04T15:55:11;8.03;;;4.90;;
15383;SDS011;7790;53.022;12.968;2023-06-04T15:59:12;6.53;;;4.70;;
15383;SDS011;7790;53.022;12.968;2023-06-04T16:03:13;6.70;;;4.50;;
15383;SDS011;7790;53.022;12.968;2023-06-04T16:07:14;6.83;;;4.43;;
15383;SDS011;7790;53.022;12.968;2023-06-04T16:11:15;5.10;;;3.87;;
15383;SDS011;7790;53.022;12.968;2023-06-04T16:15:16;5.83;;;4.30;;
15383;SDS011;7790;53.022;12.968;2023-06-04T16:19:17;6.33;;;3.90;;
15383;SDS011;7790;53.022;12.968;2023-06-04T16:23:18;4.80;;;3.60;;
15383;SDS011;7790;53.022;12.968;2023-06-04T16:27:19;5.87;;;3.90;;
15383;SDS011;7790;53.022;12.968;2023-06-04T16:31:20;5.63;;;3.90;;
15383;SDS011;7790;53.022;12.968;2023-06-04T16:35:21;5.03;;;3.80;;
15383;SDS011;7790;53.022;12.968;2023-06-04T16:39:22;6.30;;;3.40;;
15383;SDS011;7790;53.022;12.968;2023-06-04T16:43:23;9.10;;;3.40;;
15383;SDS011;7790;53.022;12.968;2023-06-04T16:47:23;7.03;;;3.33;;
15383;SDS011;7790;53.022;12.968;2023-06-04T16:51:24;5.13;;;3.07;;
15383;SDS011;7790;53.022;12.968;2023-06-04T16:55:29;8.40;;;3.50;;
15383;SDS011;7790;53.022;12.968;2023-06-04T16:59:45;7.17;;;3.43;;
15383;SDS011;7790;53.022;12.968;2023-06-04T17:03:46;14.17;;;4.10;;
15383;SDS011;7790;53.022;12.968;2023-06-04T17:07:47;8.43;;;5.10;;
15383;SDS011;7790;53.022;12.968;2023-06-04T17:11:48;10.40;;;5.07;;
15383;SDS011;7790;53.022;12.968;2023-06-04T17:15:49;23.07;;;6.83;;
15383;SDS011;7790;53.022;12.968;2023-06-04T17:19:50;16.20;;;7.00;;
15383;SDS011;7790;53.022;12.968;2023-06-04T17:23:50;21.47;;;7.27;;
15383;SDS011;7790;53.022;12.968;2023-06-04T17:27:51;16.83;;;6.57;;
15383;SDS011;7790;53.022;12.968;2023-06-04T17:31:52;19.60;;;7.00;;
15383;SDS011;7790;53.022;12.968;2023-06-04T17:35:53;14.40;;;7.00;;
15383;SDS011;7790;53.022;12.968;2023-06-04T17:39:56;12.23;;;5.63;;
15383;SDS011;7790;53.022;12.968;2023-06-04T17:43:57;10.67;;;4.17;;
15383;SDS011;7790;53.022;12.968;2023-06-04T17:47:57;9.47;;;4.70;;
15383;SDS011;7790;53.022;12.968;2023-06-04T17:52:00;12.07;;;3.97;;
15383;SDS011;7790;53.022;12.968;2023-06-04T17:56:01;9.00;;;4.20;;
15383;SDS011;7790;53.022;12.968;2023-06-04T18:00:02;13.13;;;4.07;;
15383;SDS011;7790;53.022;12.968;2023-06-04T18:04:12;9.40;;;3.67;;
15383;SDS011;7790;53.022;12.968;2023-06-04T18:08:13;10.83;;;4.00;;
15383;SDS011;7790;53.022;12.968;2023-06-04T18:12:14;7.47;;;4.00;;
15383;SDS011;7790;53.022;12.968;2023-06-04T18:16:15;14.00;;;4.60;;
15383;SDS011;7790;53.022;12.968;2023-06-04T18:20:16;7.87;;;3.93;;
15383;SDS011;7790;53.022;12.968;2023-06-04T18:24:17;7.20;;;4.10;;
15383;SDS011;7790;53.022;12.968;2023-06-04T18:28:17;7.23;;;3.50;;
15383;SDS011;7790;53.022;12.968;2023-06-04T18:32:18;8.10;;;3.50;;
15383;SDS011;7790;53.022;12.968;2023-06-04T18:36:19;6.47;;;3.50;;
15383;SDS011;7790;53.022;12.968;2023-06-04T18:40:21;9.73;;;3.70;;
15383;SDS011;7790;53.022;12.968;2023-06-04T18:44:22;6.83;;;3.30;;
15383;SDS011;7790;53.022;12.968;2023-06-04T18:48:23;14.80;;;3.43;;
15383;SDS011;7790;53.022;12.968;2023-06-04T18:52:25;7.10;;;3.27;;
15383;SDS011;7790;53.022;12.968;2023-06-04T18:56:26;6.80;;;2.73;;
15383;SDS011;7790;53.022;12.968;2023-06-04T19:00:29;4.80;;;2.13;;
15383;SDS011;7790;53.022;12.968;2023-06-04T19:04:30;6.00;;;2.93;;
15383;SDS011;7790;53.022;12.968;2023-06-04T19:08:30;4.37;;;2.33;;
15383;SDS011;7790;53.022;12.968;2023-06-04T19:12:31;7.77;;;2.17;;
15383;SDS011;7790;53.022;12.968;2023-06-04T19:16:32;2.17;;;1.47;;
15383;SDS011;7790;53.022;12.968;2023-06-04T19:20:33;2.57;;;1.67;;
15383;SDS011;7790;53.022;12.968;2023-06-04T19:24:35;3.30;;;1.70;;
15383;SDS011;7790;53.022;12.968;2023-06-04T19:28:36;2.87;;;1.43;;
15383;SDS011;7790;53.022;12.968;2023-06-04T19:32:38;2.77;;;1.80;;
15383;SDS011;7790;53.022;12.968;2023-06-04T19:36:39;2.43;;;2.20;;
15383;SDS011;7790;53.022;12.968;2023-06-04T19:40:40;3.40;;;2.13;;
15383;SDS011;7790;53.022;12.968;2023-06-04T19:44:41;2.67;;;1.87;;
15383;SDS011;7790;53.022;12.968;2023-06-04T19:48:43;2.83;;;1.73;;
15383;SDS011;7790;53.022;12.968;2023-06-04T19:52:44;3.60;;;1.70;;
15383;SDS011;7790;53.022;12.968;2023-06-04T19:56:46;1.77;;;1.40;;
15383;SDS011;7790;53.022;12.968;2023-06-04T20:00:47;11.53;;;1.70;;
15383;SDS011;7790;53.022;12.968;2023-06-04T20:04:48;19.87;;;2.37;;
15383;SDS011;7790;53.022;12.968;2023-06-04T20:08:52;9.33;;;1.87;;
15383;SDS011;7790;53.022;12.968;2023-06-04T20:12:54;2.60;;;1.50;;
15383;SDS011;7790;53.022;12.968;2023-06-04T20:16:56;7.43;;;1.70;;
15383;SDS011;7790;53.022;12.968;2023-06-04T20:20:58;2.43;;;1.40;;
15383;SDS011;7790;53.022;12.968;2023-06-04T20:24:59;1.53;;;1.40;;
15383;SDS011;7790;53.022;12.968;2023-06-04T20:29:01;5.13;;;1.70;;
15383;SDS011;7790;53.022;12.968;2023-06-04T20:33:01;3.20;;;1.60;;
15383;SDS011;7790;53.022;12.968;2023-06-04T20:37:02;3.23;;;1.90;;
15383;SDS011;7790;53.022;12.968;2023-06-04T20:41:03;2.73;;;1.50;;
15383;SDS011;7790;53.022;12.968;2023-06-04T20:45:05;4.67;;;1.50;;
15383;SDS011;7790;53.022;12.968;2023-06-04T20:49:07;2.57;;;1.40;;
15383;SDS011;7790;53.022;12.968;2023-06-04T20:53:08;4.10;;;1.20;;
15383;SDS011;7790;53.022;12.968;2023-06-04T20:57:09;3.07;;;1.47;;
15383;SDS011;7790;53.022;12.968;2023-06-04T21:01:10;1.40;;;1.30;;
15383;SDS011;7790;53.022;12.968;2023-06-04T21:05:12;2.03;;;1.30;;
15383;SDS011;7790;53.022;12.968;2023-06-04T21:09:12;1.60;;;1.43;;
15383;SDS011;7790;53.022;12.968;2023-06-04T21:13:13;1.40;;;1.30;;
15383;SDS011;7790;53.022;12.968;2023-06-04T21:17:15;1.57;;;1.23;;
15383;SDS011;7790;53.022;12.968;2023-06-04T21:21:16;2.67;;;1.30;;
15383;SDS011;7790;53.022;12.968;2023-06-04T21:25:17;1.47;;;1.37;;
15383;SDS011;7790;53.022;12.968;2023-06-04T21:29:18;1.43;;;1.20;;
15383;SDS011;7790;53.022;12.968;2023-06-04T21:33:19;1.17;;;1.07;;
15383;SDS011;7790;53.022;12.968;2023-06-04T21:37:20;1.73;;;1.40;;
15383;SDS011;7790;53.022;12.968;2023-06-04T21:41:21;2.87;;;1.30;;
15383;SDS011;7790;53.022;12.968;2023-06-04T21:45:22;2.10;;;1.13;;
15383;SDS011;7790;53.022;12.968;2023-06-04T21:49:23;1.53;;;1.00;;
15383;SDS011;7790;53.022;12.968;2023-06-04T21:53:24;1.73;;;1.27;;
15383;SDS011;7790;53.022;12.968;2023-06-04T21:57:25;3.67;;;1.27;;
15383;SDS011;7790;53.022;12.968;2023-06-04T22:01:26;2.80;;;1.10;;
15383;SDS011;7790;53.022;12.968;2023-06-04T22:05:27;3.60;;;1.37;;
15383;SDS011;7790;53.022;12.968;2023-06-04T22:09:29;1.37;;;1.27;;
15383;SDS011;7790;53.022;12.968;2023-06-04T22:13:30;1.40;;;1.10;;
15383;SDS011;7790;53.022;12.968;2023-06-04T22:17:31;2.47;;;1.00;;
15383;SDS011;7790;53.022;12.968;2023-06-04T22:21:32;1.63;;;1.10;;
15383;SDS011;7790;53.022;12.968;2023-06-04T22:25:32;0.93;;;0.93;;
15383;SDS011;7790;53.022;12.968;2023-06-04T22:29:33;1.30;;;1.10;;
15383;SDS011;7790;53.022;12.968;2023-06-04T22:33:34;0.83;;;0.83;;
15383;SDS011;7790;53.022;12.968;2023-06-04T22:37:35;2.23;;;0.90;;
15383;SDS011;7790;53.022;12.968;2023-06-04T22:41:36;1.47;;;1.20;;
15383;SDS011;7790;53.022;12.968;2023-06-04T22:45:37;1.70;;;1.30;;
15383;SDS011;7790;53.022;12.968;2023-06-04T22:49:40;2.10;;;1.10;;
15383;SDS011;7790;53.022;12.968;2023-06-04T22:53:43;1.70;;;1.03;;
15383;SDS011;7790;53.022;12.968;2023-06-04T22:57:43;1.73;;;1.23;;
15383;SDS011;7790;53.022;12.968;2023-06-04T23:01:45;1.13;;;1.13;;
15383;SDS011;7790;53.022;12.968;2023-06-04T23:05:47;1.10;;;1.00;;
15383;SDS011;7790;53.022;12.968;2023-06-04T23:09:48;1.20;;;1.10;;
15383;SDS011;7790;53.022;12.968;2023-06-04T23:13:49;0.83;;;0.83;;
15383;SDS011;7790;53.022;12.968;2023-06-04T23:17:50;2.47;;;0.97;;
15383;SDS011;7790;53.022;12.968;2023-06-04T23:21:52;1.57;;;1.47;;
15383;SDS011;7790;53.022;12.968;2023-06-04T23:25:53;1.77;;;1.10;;
15383;SDS011;7790;53.022;12.968;2023-06-04T23:29:53;3.70;;;1.27;;
15383;SDS011;7790;53.022;12.968;2023-06-04T23:33:54;2.07;;;1.30;;
15383;SDS011;7790;53.022;12.968;2023-06-04T23:37:55;1.17;;;1.07;;
15383;SDS011;7790;53.022;12.968;2023-06-04T23:41:56;1.63;;;1.10;;
15383;SDS011;7790;53.022;12.968;2023-06-04T23:45:57;1.27;;;1.17;;
15383;SDS011;7790;53.022;12.968;2023-06-04T23:49:58;2.17;;;1.30;;
15383;SDS011;7790;53.022;12.968;2023-06-04T23:53:59;1.50;;;1.40;;
15383;SDS011;7790;53.022;12.968;2023-06-04T23:57:59;2.27;;;1.13;;
